createdAt,value
2022-08-10T00:02:23.939Z,0.87
2022-08-10T00:04:54.588Z,0.80
2022-08-10T00:07:23.081Z,0.70
2022-08-10T00:09:55.477Z,0.87
2022-08-10T00:12:54.522Z,0.80
2022-08-10T00:15:52.373Z,0.90
2022-08-10T00:18:35.250Z,0.80
2022-08-10T00:21:10.999Z,0.70
2022-08-10T00:23:42.939Z,0.70
2022-08-10T00:26:11.287Z,1.00
2022-08-10T00:28:43.706Z,0.80
2022-08-10T00:31:16.057Z,0.93
2022-08-10T00:33:47.838Z,0.77
2022-08-10T00:36:18.520Z,0.90
2022-08-10T00:38:50.558Z,1.03
2022-08-10T00:41:23.775Z,0.70
2022-08-10T00:43:56.719Z,0.80
2022-08-10T00:46:26.397Z,0.90
2022-08-10T00:49:00.342Z,0.70
2022-08-10T00:51:47.944Z,0.77
2022-08-10T00:54:24.775Z,0.80
2022-08-10T00:57:17.077Z,0.80
2022-08-10T00:59:58.645Z,0.80
2022-08-10T01:02:35.539Z,0.90
2022-08-10T01:05:10.225Z,0.80
2022-08-10T01:08:01.227Z,0.90
2022-08-10T01:10:37.032Z,1.00
2022-08-10T01:13:19.083Z,0.80
2022-08-10T01:16:09.390Z,0.77
2022-08-10T01:18:50.812Z,0.70
2022-08-10T01:21:28.787Z,0.80
2022-08-10T01:24:18.006Z,0.80
2022-08-10T01:27:15.600Z,0.80
2022-08-10T01:30:01.278Z,0.80
2022-08-10T01:32:44.474Z,0.87
2022-08-10T01:35:23.812Z,0.70
2022-08-10T01:38:10.264Z,0.80
2022-08-10T01:40:58.077Z,0.90
2022-08-10T01:43:31.696Z,0.70
2022-08-10T01:46:03.949Z,0.80
2022-08-10T01:48:37.862Z,0.90
2022-08-10T01:51:18.799Z,0.67
2022-08-10T01:53:57.196Z,0.90
2022-08-10T01:56:34.052Z,0.80
2022-08-10T01:59:06.309Z,0.90
2022-08-10T02:01:41.876Z,0.93
2022-08-10T02:04:15.898Z,0.87
2022-08-10T02:06:50.059Z,0.90
2022-08-10T02:09:33.188Z,0.80
2022-08-10T02:12:08.949Z,0.70
2022-08-10T02:14:45.796Z,0.90
2022-08-10T02:17:58.549Z,0.83
2022-08-10T02:20:15.831Z,1.00
2022-08-10T02:22:48.664Z,0.87
2022-08-10T02:25:42.451Z,0.67
2022-08-10T02:28:30.312Z,0.77
2022-08-10T02:31:07.008Z,1.10
2022-08-10T02:33:56.677Z,0.90
2022-08-10T02:36:32.803Z,0.80
2022-08-10T02:39:09.425Z,0.70
2022-08-10T02:45:01.928Z,0.80
2022-08-10T02:45:29.196Z,0.90
2022-08-10T02:48:12.086Z,0.70
2022-08-10T02:50:44.891Z,0.90
2022-08-10T02:53:51.409Z,0.70
2022-08-10T02:56:42.132Z,1.00
2022-08-10T02:59:40.535Z,0.80
2022-08-10T03:02:15.124Z,0.80
2022-08-10T03:04:58.036Z,0.90
2022-08-10T03:07:42.875Z,0.80
2022-08-10T03:10:28.782Z,0.80
2022-08-10T03:13:06.989Z,0.90
2022-08-10T03:15:42.252Z,0.70
2022-08-10T03:18:13.409Z,1.10
2022-08-10T03:20:45.072Z,0.73
2022-08-10T03:23:17.758Z,0.87
2022-08-10T03:26:02.827Z,0.83
2022-08-10T03:28:39.413Z,0.70
2022-08-10T03:31:14.372Z,0.67
2022-08-10T03:33:57.479Z,0.90
2022-08-10T03:36:41.641Z,0.90
2022-08-10T03:39:19.341Z,0.70
2022-08-10T03:41:54.225Z,0.90
2022-08-10T03:44:27.218Z,0.70
2022-08-10T03:46:56.112Z,0.90
2022-08-10T03:49:25.654Z,0.83
2022-08-10T03:52:04.763Z,0.90
2022-08-10T03:54:37.230Z,0.87
2022-08-10T03:57:14.200Z,0.80
2022-08-10T03:59:46.109Z,1.03
2022-08-10T04:02:45.385Z,0.90
2022-08-10T04:05:15.042Z,0.80
2022-08-10T04:07:47.405Z,0.70
2022-08-10T04:10:19.563Z,0.80
2022-08-10T04:12:50.968Z,0.80
2022-08-10T04:15:30.009Z,0.80
2022-08-10T04:18:05.529Z,0.80
2022-08-10T04:20:42.280Z,0.83
2022-08-10T04:23:23.993Z,0.93
2022-08-10T04:25:54.979Z,0.80
2022-08-10T04:28:26.987Z,0.77
2022-08-10T04:30:56.818Z,0.60
2022-08-10T04:33:29.503Z,0.60
2022-08-10T04:36:01.664Z,0.80
2022-08-10T04:38:32.399Z,0.90
2022-08-10T04:41:03.518Z,0.80
2022-08-10T04:43:35.970Z,0.80
2022-08-10T04:46:42.674Z,0.90
2022-08-10T04:49:01.882Z,0.90
2022-08-10T04:51:36.561Z,0.87
2022-08-10T04:54:18.207Z,0.80
2022-08-10T04:56:50.408Z,1.00
2022-08-10T04:59:22.195Z,0.70
2022-08-10T05:02:31.666Z,0.80
2022-08-10T05:04:50.473Z,1.00
2022-08-10T05:07:19.967Z,0.90
2022-08-10T05:10:01.273Z,0.90
2022-08-10T05:12:41.502Z,0.90
2022-08-10T05:15:18.688Z,0.73
2022-08-10T05:18:08.708Z,0.80
2022-08-10T05:20:41.891Z,0.73
2022-08-10T05:23:10.681Z,0.80
2022-08-10T05:25:45.798Z,1.00
2022-08-10T05:28:18.977Z,0.90
2022-08-10T05:30:55.703Z,0.70
2022-08-10T05:33:28.561Z,0.73
2022-08-10T05:36:00.374Z,0.80
2022-08-10T05:38:33.372Z,0.80
2022-08-10T05:41:00.962Z,0.83
2022-08-10T05:43:29.669Z,1.20
2022-08-10T05:46:18.718Z,0.80
2022-08-10T05:49:01.184Z,1.03
2022-08-10T05:51:43.838Z,0.87
2022-08-10T05:54:18.688Z,0.70
2022-08-10T05:56:55.555Z,0.90
2022-08-10T06:00:33.442Z,0.90
2022-08-10T06:02:49.384Z,0.80
2022-08-10T06:05:19.273Z,1.20
2022-08-10T06:08:15.198Z,1.00
2022-08-10T06:12:23.921Z,1.10
2022-08-10T06:14:06.144Z,0.93
2022-08-10T06:16:57.794Z,0.70
2022-08-10T06:19:26.335Z,0.80
2022-08-10T06:22:01.734Z,1.00
2022-08-10T06:24:32.309Z,0.90
2022-08-10T06:27:03.964Z,1.03
2022-08-10T06:29:37.934Z,1.00
2022-08-10T06:32:09.835Z,1.10
2022-08-10T06:35:00.950Z,1.30
2022-08-10T06:40:19.903Z,0.80
2022-08-10T06:46:08.182Z,0.90
2022-08-10T06:48:41.388Z,0.90
2022-08-10T06:51:15.839Z,0.80
2022-08-10T06:53:52.888Z,0.83
2022-08-10T06:56:36.480Z,1.13
2022-08-10T06:59:21.976Z,1.00
2022-08-10T07:01:57.926Z,0.80
2022-08-10T07:04:35.611Z,0.93
2022-08-10T07:07:11.447Z,0.70
2022-08-10T07:09:44.145Z,0.80
2022-08-10T07:12:30.790Z,0.83
2022-08-10T07:15:14.838Z,0.80
2022-08-10T07:17:51.822Z,1.00
2022-08-10T07:20:32.508Z,0.90
2022-08-10T07:23:56.094Z,1.10
2022-08-10T07:26:02.693Z,0.90
2022-08-10T07:28:35.071Z,0.90
2022-08-10T07:31:04.943Z,0.90
2022-08-10T07:33:59.216Z,0.93
2022-08-10T07:36:30.955Z,1.07
2022-08-10T07:39:03.913Z,0.90
2022-08-10T07:41:34.372Z,0.90
2022-08-10T07:44:08.826Z,0.90
2022-08-10T07:46:40.705Z,1.10
2022-08-10T07:49:19.295Z,1.10
2022-08-10T07:51:59.264Z,0.90
2022-08-10T07:54:32.825Z,0.90
2022-08-10T07:57:04.189Z,1.07
2022-08-10T07:59:41.397Z,1.10
2022-08-10T08:02:15.584Z,1.00
2022-08-10T08:04:45.418Z,0.83
2022-08-10T08:07:18.334Z,0.90
2022-08-10T08:12:39.845Z,0.83
2022-08-10T08:16:16.908Z,1.00
2022-08-10T08:18:08.083Z,1.20
2022-08-10T08:20:45.106Z,0.90
2022-08-10T08:24:30.563Z,1.00
2022-08-10T08:26:23.347Z,1.10
2022-08-10T08:28:58.788Z,1.23
2022-08-10T08:32:01.234Z,1.20
2022-08-10T08:34:26.907Z,1.60
2022-08-10T08:37:00.563Z,1.30
2022-08-10T08:39:30.251Z,1.30
2022-08-10T08:48:23.034Z,1.50
2022-08-10T08:52:09.357Z,1.40
2022-08-10T08:54:39.544Z,1.50
2022-08-10T08:57:49.079Z,1.40
2022-08-10T09:00:28.172Z,1.30
2022-08-10T09:03:01.882Z,1.30
2022-08-10T09:06:02.772Z,2.00
2022-08-10T09:08:39.512Z,1.40
2022-08-10T09:11:17.820Z,1.43
2022-08-10T09:13:53.151Z,1.47
2022-08-10T09:16:49.398Z,1.40
2022-08-10T09:19:37.660Z,1.40
2022-08-10T09:22:18.523Z,1.70
2022-08-10T09:27:57.115Z,1.83
2022-08-10T09:30:35.754Z,1.60
2022-08-10T09:36:25.564Z,1.63
2022-08-10T09:36:32.620Z,1.80
2022-08-10T09:40:12.448Z,1.13
2022-08-10T09:42:31.900Z,1.67
2022-08-10T09:45:41.777Z,1.20
2022-08-10T09:48:28.818Z,1.50
2022-08-10T09:51:43.836Z,1.60
2022-08-10T09:54:42.800Z,1.50
2022-08-10T09:57:54.782Z,1.50
2022-08-10T10:00:23.657Z,1.60
2022-08-10T10:02:59.210Z,1.73
2022-08-10T10:05:52.179Z,1.30
2022-08-10T10:08:22.853Z,1.47
2022-08-10T10:11:16.275Z,1.73
2022-08-10T10:14:04.072Z,1.70
2022-08-10T10:16:33.445Z,1.87
2022-08-10T10:19:14.030Z,1.87
2022-08-10T10:21:57.759Z,1.60
2022-08-10T10:24:44.711Z,1.70
2022-08-10T10:30:08.264Z,1.60
2022-08-10T10:32:57.782Z,1.60
2022-08-10T10:35:28.328Z,1.90
2022-08-10T10:38:00.759Z,1.70
2022-08-10T10:41:07.179Z,1.73
2022-08-10T10:43:49.624Z,1.77
2022-08-10T10:46:31.998Z,1.70
2022-08-10T10:49:22.155Z,1.83
2022-08-10T10:52:02.057Z,1.53
2022-08-10T10:54:53.581Z,1.53
2022-08-10T10:57:58.207Z,1.40
2022-08-10T11:00:25.195Z,1.63
2022-08-10T11:03:08.343Z,2.10
2022-08-10T11:06:00.901Z,1.93
2022-08-10T11:08:32.279Z,1.77
2022-08-10T11:12:01.510Z,2.00
2022-08-10T11:14:37.533Z,1.70
2022-08-10T11:17:26.745Z,1.97
2022-08-10T11:20:11.411Z,1.87
2022-08-10T11:22:59.566Z,1.93
2022-08-10T11:25:34.015Z,1.87
2022-08-10T11:28:22.351Z,1.83
2022-08-10T11:30:51.214Z,1.87
2022-08-10T11:33:36.817Z,2.03
2022-08-10T11:36:33.975Z,1.97
2022-08-10T11:39:17.402Z,1.90
2022-08-10T11:42:09.705Z,1.80
2022-08-10T11:45:09.772Z,1.93
2022-08-10T11:47:59.110Z,1.50
2022-08-10T11:50:52.749Z,1.67
2022-08-10T11:53:27.142Z,1.97
2022-08-10T11:56:12.194Z,1.80
2022-08-10T11:59:16.427Z,1.90
2022-08-10T12:01:51.692Z,1.90
2022-08-10T12:04:24.840Z,1.87
2022-08-10T12:06:56.198Z,2.07
2022-08-10T12:10:11.623Z,1.80
2022-08-10T12:15:20.981Z,2.00
2022-08-10T12:17:57.044Z,2.10
2022-08-10T12:20:33.947Z,1.90
2022-08-10T12:23:15.301Z,2.10
2022-08-10T12:25:58.710Z,2.23
2022-08-10T12:31:53.082Z,2.10
2022-08-10T12:34:30.150Z,2.20
2022-08-10T12:37:12.819Z,2.20
2022-08-10T12:40:06.885Z,1.77
2022-08-10T12:43:13.008Z,2.00
2022-08-10T12:46:11.979Z,2.27
2022-08-10T12:49:04.219Z,2.10
2022-08-10T12:51:49.583Z,1.83
2022-08-10T12:54:32.139Z,2.30
2022-08-10T12:57:11.132Z,2.07
2022-08-10T12:59:59.193Z,2.10
2022-08-10T13:02:38.807Z,2.17
2022-08-10T13:05:16.082Z,2.20
2022-08-10T13:08:25.218Z,2.03
2022-08-10T13:12:33.761Z,2.17
2022-08-10T13:14:00.010Z,2.70
2022-08-10T13:16:32.686Z,2.10
2022-08-10T13:19:04.655Z,2.20
2022-08-10T13:24:29.361Z,2.10
2022-08-10T13:27:25.770Z,2.27
2022-08-10T13:30:03.686Z,2.10
2022-08-10T13:32:38.212Z,2.20
2022-08-10T13:35:15.060Z,2.30
2022-08-10T13:37:53.653Z,2.23
2022-08-10T13:40:23.556Z,2.10
2022-08-10T13:43:05.992Z,2.07
2022-08-10T13:45:37.084Z,2.27
2022-08-10T13:48:18.564Z,2.57
2022-08-10T13:53:33.177Z,2.50
2022-08-10T13:56:05.693Z,2.30
2022-08-10T13:58:35.546Z,2.00
2022-08-10T14:01:09.848Z,2.00
2022-08-10T14:03:41.934Z,2.37
2022-08-10T14:06:16.139Z,2.40
2022-08-10T14:08:56.155Z,2.10
2022-08-10T14:11:29.694Z,2.10
2022-08-10T14:14:04.743Z,2.13
2022-08-10T14:16:36.983Z,2.10
2022-08-10T14:19:10.605Z,2.00
2022-08-10T14:21:45.152Z,1.90
2022-08-10T14:24:32.703Z,1.90
2022-08-10T14:27:17.234Z,2.20
2022-08-10T14:30:00.335Z,2.60
2022-08-10T14:32:35.953Z,1.80
2022-08-10T14:36:18.659Z,2.10
2022-08-10T14:38:11.643Z,2.07
2022-08-10T14:40:59.276Z,1.70
2022-08-10T14:43:43.369Z,1.97
2022-08-10T14:46:29.566Z,1.90
2022-08-10T14:49:25.411Z,1.93
2022-08-10T14:51:56.755Z,2.03
2022-08-10T14:54:29.873Z,2.10
2022-08-10T14:57:01.372Z,1.63
2022-08-10T15:00:25.269Z,1.80
2022-08-10T15:02:52.978Z,2.10
2022-08-10T15:05:39.784Z,2.00
2022-08-10T15:08:13.428Z,1.80
2022-08-10T15:10:51.177Z,1.73
2022-08-10T15:13:33.883Z,2.13
2022-08-10T15:16:13.993Z,2.70
2022-08-10T15:18:58.115Z,1.50
2022-08-10T15:21:42.868Z,2.10
2022-08-10T15:27:01.646Z,1.90
2022-08-10T15:29:31.989Z,1.83
2022-08-10T15:32:26.488Z,1.80
2022-08-10T15:35:14.216Z,1.87
2022-08-10T15:37:54.590Z,2.00
2022-08-10T15:40:30.751Z,2.00
2022-08-10T15:45:53.250Z,1.73
2022-08-10T15:48:25.586Z,1.60
2022-08-10T15:51:09.537Z,2.00
2022-08-10T15:53:53.072Z,1.90
2022-08-10T15:56:58.120Z,1.83
2022-08-10T15:59:46.385Z,1.80
2022-08-10T16:02:19.606Z,1.70
2022-08-10T16:06:00.726Z,1.73
2022-08-10T16:11:03.409Z,1.73
2022-08-10T16:13:59.908Z,1.53
2022-08-10T16:16:38.988Z,1.50
2022-08-10T16:19:24.988Z,1.67
2022-08-10T16:22:34.468Z,1.60
2022-08-10T16:24:57.693Z,1.67
2022-08-10T16:30:11.392Z,1.43
2022-08-10T16:32:40.961Z,1.40
2022-08-10T16:35:16.731Z,1.57
2022-08-10T16:37:57.732Z,1.50
2022-08-10T16:40:32.489Z,1.60
2022-08-10T16:43:03.665Z,1.60
2022-08-10T16:45:42.456Z,1.80
2022-08-10T16:53:54.811Z,1.70
2022-08-10T16:56:33.911Z,1.40
2022-08-10T16:59:26.600Z,1.80
2022-08-10T17:01:56.213Z,1.70
2022-08-10T17:04:32.717Z,1.40
2022-08-10T17:07:06.553Z,1.43
2022-08-10T17:09:35.377Z,1.30
2022-08-10T17:12:14.513Z,1.53
2022-08-10T17:14:52.411Z,1.40
2022-08-10T17:17:43.319Z,1.50
2022-08-10T17:20:30.342Z,1.77
2022-08-10T17:23:09.987Z,1.40
2022-08-10T17:25:49.001Z,1.30
2022-08-10T17:28:34.673Z,1.50
2022-08-10T17:31:24.081Z,1.67
2022-08-10T17:34:15.731Z,1.40
2022-08-10T17:36:49.125Z,1.90
2022-08-10T17:39:20.699Z,1.70
2022-08-10T17:41:54.899Z,1.50
2022-08-10T17:44:27.252Z,1.40
2022-08-10T17:46:56.127Z,1.50
2022-08-10T17:49:34.364Z,1.60
2022-08-10T17:52:07.662Z,1.60
2022-08-10T17:54:46.074Z,1.50
2022-08-10T17:57:19.157Z,1.60
2022-08-10T17:59:57.268Z,1.63
2022-08-10T18:02:31.932Z,1.43
2022-08-10T18:05:11.707Z,1.33
2022-08-10T18:10:35.400Z,1.23
2022-08-10T18:13:07.557Z,1.33
2022-08-10T18:15:40.485Z,1.30
2022-08-10T18:18:17.009Z,1.60
2022-08-10T18:20:48.816Z,1.30
2022-08-10T18:23:41.693Z,1.40
2022-08-10T18:26:25.415Z,1.30
2022-08-10T18:28:57.775Z,1.40
2022-08-10T18:31:29.845Z,1.03
2022-08-10T18:34:01.092Z,1.33
2022-08-10T18:36:48.730Z,1.57
2022-08-10T18:39:18.147Z,1.37
2022-08-10T18:42:05.544Z,1.30
2022-08-10T18:44:49.326Z,1.43
2022-08-10T18:47:23.715Z,1.17
2022-08-10T18:50:08.988Z,1.37
2022-08-10T18:52:39.459Z,1.20
2022-08-10T18:55:39.649Z,1.10
2022-08-10T18:58:35.648Z,1.27
2022-08-10T19:01:31.110Z,1.53
2022-08-10T19:04:21.632Z,1.13
2022-08-10T19:07:17.117Z,1.43
2022-08-10T19:10:07.038Z,1.00
2022-08-10T19:13:08.277Z,1.40
2022-08-10T19:15:53.185Z,1.10
2022-08-10T19:18:42.314Z,1.13
2022-08-10T19:21:25.639Z,1.20
2022-08-10T19:24:02.800Z,1.30
2022-08-10T19:26:45.051Z,1.60
2022-08-10T19:30:09.818Z,1.00
2022-08-10T19:32:56.134Z,1.37
2022-08-10T19:36:03.567Z,1.23
2022-08-10T19:38:38.107Z,1.10
2022-08-10T19:41:32.107Z,1.23
2022-08-10T19:44:20.246Z,1.17
2022-08-10T19:47:03.522Z,1.17
2022-08-10T19:49:40.205Z,1.20
2022-08-10T19:52:40.221Z,1.20
2022-08-10T19:55:21.657Z,1.33
2022-08-10T19:58:19.232Z,1.20
2022-08-10T20:01:52.803Z,1.20
2022-08-10T20:04:29.688Z,1.20
2022-08-10T20:07:14.238Z,1.40
2022-08-10T20:09:43.439Z,1.13
2022-08-10T20:12:23.443Z,1.10
2022-08-10T20:15:07.103Z,1.10
2022-08-10T20:17:52.620Z,1.07
2022-08-10T20:20:47.656Z,1.30
2022-08-10T20:23:23.687Z,1.13
2022-08-10T20:26:18.118Z,1.17
2022-08-10T20:29:01.163Z,1.10
2022-08-10T20:31:43.388Z,1.17
2022-08-10T20:34:24.803Z,1.20
2022-08-10T20:37:40.963Z,1.10
2022-08-10T20:40:25.268Z,1.10
2022-08-10T20:43:02.512Z,1.33
2022-08-10T20:45:57.969Z,1.13
2022-08-10T20:48:35.320Z,1.20
2022-08-10T20:51:12.558Z,1.13
2022-08-10T20:53:47.439Z,1.30
2022-08-10T20:56:24.241Z,1.00
2022-08-10T20:58:58.143Z,1.00
2022-08-10T21:02:06.792Z,1.00
2022-08-10T21:04:39.561Z,1.30
2022-08-10T21:08:00.472Z,1.07
2022-08-10T21:10:43.487Z,1.07
2022-08-10T21:13:41.643Z,1.13
2022-08-10T21:16:28.518Z,1.10
2022-08-10T21:19:30.288Z,0.90
2022-08-10T21:22:13.328Z,1.00
2022-08-10T21:28:25.093Z,1.00
2022-08-10T21:31:24.929Z,1.20
2022-08-10T21:34:16.578Z,1.10
2022-08-10T21:37:07.928Z,1.10
2022-08-10T21:39:57.140Z,1.10
2022-08-10T21:43:04.384Z,0.80
2022-08-10T21:46:11.151Z,1.20
2022-08-10T21:49:16.766Z,1.20
2022-08-10T21:52:33.301Z,0.97
2022-08-10T21:55:56.950Z,1.10
2022-08-10T21:59:03.141Z,0.97
2022-08-10T22:02:00.205Z,1.27
2022-08-10T22:04:50.402Z,1.20
2022-08-10T22:07:41.494Z,1.27
2022-08-10T22:10:33.638Z,1.10
2022-08-10T22:13:24.395Z,0.93
2022-08-10T22:16:18.195Z,1.10
2022-08-10T22:19:14.626Z,1.00
2022-08-10T22:22:26.799Z,1.10
2022-08-10T22:25:37.898Z,1.37
2022-08-10T22:28:27.459Z,1.50
2022-08-10T22:31:32.122Z,1.60
2022-08-10T22:34:44.142Z,1.50
2022-08-10T22:40:43.905Z,1.60
2022-08-10T22:43:41.227Z,2.07
2022-08-10T22:46:33.746Z,1.50
2022-08-10T22:49:01.821Z,1.93
2022-08-10T22:51:52.783Z,1.63
2022-08-10T22:55:01.782Z,1.90
2022-08-10T22:57:54.130Z,1.97
2022-08-10T23:00:30.702Z,1.63
2022-08-10T23:03:15.383Z,1.80
2022-08-10T23:06:18.682Z,1.60
2022-08-10T23:09:00.108Z,2.00
2022-08-10T23:11:47.799Z,1.83
2022-08-10T23:14:20.860Z,1.73
2022-08-10T23:17:25.321Z,1.50
2022-08-10T23:20:19.510Z,1.90
2022-08-10T23:23:04.708Z,1.80
2022-08-10T23:25:57.504Z,1.63
2022-08-10T23:28:39.054Z,1.80
2022-08-10T23:32:01.192Z,1.97
2022-08-10T23:34:40.399Z,1.83
2022-08-10T23:37:13.405Z,1.93
2022-08-10T23:39:56.049Z,1.80
2022-08-10T23:42:38.404Z,1.77
2022-08-10T23:45:15.158Z,1.77
2022-08-10T23:47:51.193Z,2.00
2022-08-10T23:50:28.120Z,1.90
2022-08-10T23:53:00.342Z,1.77
2022-08-10T23:55:48.886Z,1.90
2022-08-10T23:58:33.093Z,1.50
